Vincent, Ohio
Current Conditions -  °F | °C
As of 10:53 AM on Saturday 22 Nov 2014 (Local Time) from KPKB Reporting Station
Light Rain Light Rain  
Wind Chill: 36°   Ceiling: 6500
Heat Index: 36°   Visibility: 10mi
Dew Point: 22°   Wind: 0mph
Humidity: 57%   Direction: NA
Pressure: 30.35"   Gusts: NA
Location:  39.37°N, 81.66°W
Report Text: KPKB 221553Z 00000KT 10SM -RA BKN065 OVC085 02/M06 A3035 RMK AO2 RAB44 SLP286 P0000 T00221056
Loading
Personal Weather Stations






























Interactive Weather Map New forecast layout! Learn more

10-Day Weather Forecast

Advertisements
Track Severe Weather on mobile